Time;durP1;ratioP1;P1;durP2;ratioP2;P2;SDS_P1;SDS_P2;PMS_P1;PMS_P2;Temp;Humidity;BMP_temperature;BMP_pressure;BME280_temperature;BME280_humidity;BME280_pressure;Samples;Min_cycle;Max_cycle;Signal;HPM_P1;HPM_P2
2021/06/24 00:00:58;;;;;;;8.93;4.03;;;20.80;69.50;;;;;;5053257;28;20415;-65
2021/06/24 00:03:25;;;;;;;8.07;4.13;;;20.70;69.50;;;;;;5053226;28;20029;-65
2021/06/24 00:05:52;;;;;;;8.35;3.80;;;20.70;70.40;;;;;;5053070;28;20074;-65
2021/06/24 00:08:18;;;;;;;8.55;3.63;;;20.60;69.90;;;;;;5052771;28;20025;-65
2021/06/24 00:10:47;;;;;;;11.95;4.47;;;20.60;71.10;;;;;;5053284;28;20474;-65
2021/06/24 00:13:13;;;;;;;9.60;4.38;;;20.70;69.80;;;;;;5034939;28;20108;-65
2021/06/24 00:15:39;;;;;;;7.20;3.92;;;20.60;70.50;;;;;;5052789;28;20040;-67
2021/06/24 00:18:06;;;;;;;9.98;4.22;;;20.70;69.90;;;;;;5034937;28;20037;-65
2021/06/24 00:20:33;;;;;;;10.75;4.15;;;20.60;70.50;;;;;;5051273;28;20103;-66
2021/06/24 00:22:59;;;;;;;10.25;4.03;;;20.50;70.10;;;;;;5052179;28;20024;-65
2021/06/24 00:25:24;;;;;;;8.65;4.10;;;20.30;71.20;;;;;;5051445;28;20025;-66
2021/06/24 00:27:50;;;;;;;10.60;3.65;;;20.30;71.30;;;;;;5034213;28;20035;-66
2021/06/24 00:30:16;;;;;;;12.90;4.22;;;20.40;71.70;;;;;;5034958;28;20098;-65
2021/06/24 00:32:42;;;;;;;11.25;4.50;;;20.40;71.30;;;;;;5052104;28;20029;-66
2021/06/24 00:35:08;;;;;;;9.25;4.65;;;20.50;70.90;;;;;;5034679;28;20077;-66
2021/06/24 00:37:35;;;;;;;8.73;4.38;;;20.40;70.50;;;;;;5052244;28;20425;-66
2021/06/24 00:40:02;;;;;;;8.68;4.53;;;20.30;71.70;;;;;;5051790;28;20512;-65
2021/06/24 00:42:29;;;;;;;6.22;3.08;;;20.40;71.50;;;;;;5034569;28;20032;-65
2021/06/24 00:44:55;;;;;;;7.25;3.63;;;20.30;71.50;;;;;;5034460;28;20500;-68
2021/06/24 00:47:22;;;;;;;6.53;3.33;;;20.40;71.50;;;;;;5052372;28;20047;-64
2021/06/24 00:49:47;;;;;;;8.18;4.10;;;20.40;72.20;;;;;;5052366;28;20033;-66
2021/06/24 00:52:13;;;;;;;11.25;4.18;;;20.30;71.40;;;;;;5052399;28;20033;-64
2021/06/24 00:54:38;;;;;;;10.65;4.60;;;20.30;71.80;;;;;;5034621;28;20082;-65
2021/06/24 00:57:06;;;;;;;8.85;3.97;;;20.30;71.00;;;;;;5051865;28;20096;-66
2021/06/24 00:59:33;;;;;;;13.10;5.15;;;20.30;71.70;;;;;;5052348;28;20021;-65
2021/06/24 01:01:58;;;;;;;14.10;4.57;;;20.30;71.90;;;;;;5034223;28;20053;-65
2021/06/24 01:04:24;;;;;;;9.23;3.45;;;20.30;71.90;;;;;;5051929;28;20056;-66
2021/06/24 01:06:51;;;;;;;9.52;3.78;;;20.30;71.70;;;;;;5051213;28;20021;-63
2021/06/24 01:09:17;;;;;;;8.48;4.03;;;20.30;71.60;;;;;;5051941;28;20040;-63
2021/06/24 01:11:43;;;;;;;9.85;4.25;;;20.30;71.80;;;;;;5034198;28;20072;-66
2021/06/24 01:14:09;;;;;;;7.93;4.18;;;20.20;72.20;;;;;;5051798;28;20041;-66
2021/06/24 01:16:35;;;;;;;7.00;3.35;;;20.30;71.90;;;;;;5051955;28;20386;-65
2021/06/24 01:19:01;;;;;;;10.70;4.63;;;20.20;72.20;;;;;;5034033;28;20024;-65
2021/06/24 01:21:27;;;;;;;9.55;4.10;;;20.20;72.40;;;;;;5051640;28;20041;-66
2021/06/24 01:23:53;;;;;;;9.27;4.15;;;20.20;72.70;;;;;;5034212;28;20486;-65
2021/06/24 01:26:18;;;;;;;8.77;3.78;;;20.20;72.30;;;;;;5051349;28;20032;-65
2021/06/24 01:28:44;;;;;;;9.90;4.32;;;20.20;72.30;;;;;;5033892;28;20056;-65
2021/06/24 01:31:13;;;;;;;9.40;4.00;;;20.10;72.70;;;;;;5051596;28;20037;-65
2021/06/24 01:33:39;;;;;;;9.32;3.75;;;20.10;72.10;;;;;;5051395;28;20025;-67
2021/06/24 01:36:06;;;;;;;8.93;3.75;;;20.10;72.40;;;;;;5051261;28;20547;-64
2021/06/24 01:38:32;;;;;;;8.82;4.07;;;20.10;72.10;;;;;;5051254;28;20029;-65
2021/06/24 01:40:57;;;;;;;9.23;4.68;;;20.10;72.60;;;;;;5051546;28;20425;-65
2021/06/24 01:43:26;;;;;;;8.25;4.05;;;20.10;71.70;;;;;;5051227;28;20084;-66
2021/06/24 01:45:54;;;;;;;7.82;4.15;;;20.10;72.60;;;;;;5051123;28;20052;-65
2021/06/24 01:48:21;;;;;;;8.25;4.25;;;20.10;72.50;;;;;;5051303;28;20092;-65
2021/06/24 01:50:47;;;;;;;7.43;3.88;;;20.10;72.40;;;;;;5051630;28;20386;-65
2021/06/24 01:53:13;;;;;;;10.57;3.80;;;20.10;72.50;;;;;;5051274;28;20113;-65
2021/06/24 01:55:40;;;;;;;8.15;4.05;;;20.10;72.50;;;;;;5051099;28;20100;-65
2021/06/24 01:58:08;;;;;;;8.57;3.88;;;20.10;72.70;;;;;;5045921;28;20029;-68
2021/06/24 02:00:35;;;;;;;7.60;4.03;;;20.10;72.60;;;;;;5045403;28;20111;-65
2021/06/24 02:03:01;;;;;;;10.45;4.70;;;20.00;72.90;;;;;;5051317;28;20408;-65
2021/06/24 02:05:27;;;;;;;8.07;4.47;;;20.00;72.90;;;;;;5033030;28;20056;-65
2021/06/24 02:07:53;;;;;;;9.57;4.50;;;20.00;73.10;;;;;;5051056;28;20467;-66
2021/06/24 02:10:19;;;;;;;8.27;3.88;;;20.00;72.90;;;;;;5033226;28;20025;-65
2021/06/24 02:12:44;;;;;;;10.18;4.20;;;20.00;73.00;;;;;;5033460;28;20021;-65
2021/06/24 02:15:12;;;;;;;10.07;4.63;;;19.90;73.10;;;;;;5051101;28;20025;-67
2021/06/24 02:17:39;;;;;;;8.40;4.70;;;19.90;73.40;;;;;;5050939;28;20398;-65
2021/06/24 02:20:08;;;;;;;8.05;3.65;;;19.80;73.20;;;;;;5050996;28;20119;-64
2021/06/24 02:22:33;;;;;;;6.93;4.15;;;19.80;73.60;;;;;;5033330;28;20525;-65
2021/06/24 02:25:00;;;;;;;9.52;4.55;;;19.80;74.10;;;;;;5050975;28;20048;-65
2021/06/24 02:27:25;;;;;;;7.38;3.92;;;19.90;73.60;;;;;;5032917;28;20021;-65
2021/06/24 02:29:51;;;;;;;10.73;4.18;;;19.90;73.70;;;;;;5050659;28;20478;-66
2021/06/24 02:32:16;;;;;;;9.23;4.38;;;19.90;73.60;;;;;;5050812;28;20128;-66
2021/06/24 02:34:44;;;;;;;8.80;4.55;;;19.90;73.60;;;;;;5050830;28;20029;-65
2021/06/24 02:37:10;;;;;;;10.43;4.22;;;19.90;74.20;;;;;;5044720;28;20111;-65
2021/06/24 02:39:35;;;;;;;7.18;4.15;;;19.80;73.90;;;;;;5050644;28;20128;-65
2021/06/24 02:42:01;;;;;;;9.10;5.15;;;19.80;74.20;;;;;;5050022;28;20086;-65
2021/06/24 02:44:27;;;;;;;9.57;4.18;;;19.80;74.30;;;;;;5050747;28;20025;-65
2021/06/24 02:46:52;;;;;;;7.97;4.40;;;19.80;74.00;;;;;;5050638;28;20060;-65
2021/06/24 02:49:18;;;;;;;11.70;4.72;;;19.80;74.30;;;;;;5032931;28;20025;-64
2021/06/24 02:51:46;;;;;;;8.30;3.85;;;19.80;73.90;;;;;;5050759;28;20033;-65
2021/06/24 02:54:12;;;;;;;9.98;4.75;;;19.80;74.10;;;;;;5040205;28;20133;-65
2021/06/24 02:56:39;;;;;;;9.98;4.72;;;19.90;74.10;;;;;;5025101;28;20056;-64
2021/06/24 02:59:05;;;;;;;8.50;4.47;;;19.80;74.60;;;;;;5044403;28;20027;-65
2021/06/24 03:01:30;;;;;;;8.88;4.20;;;19.80;74.30;;;;;;5050324;28;20076;-64
2021/06/24 03:03:56;;;;;;;8.98;4.53;;;19.80;74.80;;;;;;5051593;28;20068;-65
2021/06/24 03:06:22;;;;;;;12.85;5.55;;;19.80;74.00;;;;;;5054389;28;20024;-66
2021/06/24 03:08:48;;;;;;;10.30;4.82;;;19.70;74.40;;;;;;5054248;28;20394;-65
2021/06/24 03:11:15;;;;;;;10.27;6.00;;;19.70;74.10;;;;;;5053800;28;20040;-66
2021/06/24 03:13:40;;;;;;;8.88;4.15;;;19.60;74.80;;;;;;5054259;28;20025;-65
2021/06/24 03:16:06;;;;;;;9.93;5.13;;;19.70;74.20;;;;;;5054242;28;20033;-66
2021/06/24 03:18:32;;;;;;;7.85;4.30;;;19.70;74.30;;;;;;5036290;28;20029;-67
2021/06/24 03:20:57;;;;;;;11.20;4.70;;;19.80;74.30;;;;;;5053996;28;20032;-65
2021/06/24 03:23:23;;;;;;;8.05;4.30;;;19.70;74.40;;;;;;5053959;28;20047;-66
2021/06/24 03:25:49;;;;;;;8.75;4.68;;;19.70;74.50;;;;;;5054190;28;20031;-65
2021/06/24 03:28:14;;;;;;;9.98;4.50;;;19.60;74.80;;;;;;5053815;28;20096;-65
2021/06/24 03:30:41;;;;;;;8.68;4.75;;;19.60;74.80;;;;;;5035976;28;20119;-67
2021/06/24 03:33:07;;;;;;;12.80;4.93;;;19.60;74.90;;;;;;5035762;28;20397;-65
2021/06/24 03:35:33;;;;;;;9.02;4.68;;;19.60;74.80;;;;;;5053712;28;20113;-66
2021/06/24 03:37:58;;;;;;;10.05;5.13;;;19.60;74.80;;;;;;5053700;28;20448;-65
2021/06/24 03:40:24;;;;;;;10.07;4.93;;;19.60;74.70;;;;;;5046110;28;20024;-67
2021/06/24 03:42:51;;;;;;;10.10;5.35;;;19.60;74.70;;;;;;5052839;28;20036;-66
2021/06/24 03:45:17;;;;;;;10.70;5.22;;;19.60;74.80;;;;;;5035288;28;20021;-66
2021/06/24 03:47:43;;;;;;;7.65;4.57;;;19.60;74.50;;;;;;5053239;28;20039;-66
2021/06/24 03:50:10;;;;;;;10.35;4.88;;;19.60;74.60;;;;;;5053138;28;20492;-67
2021/06/24 03:52:36;;;;;;;8.55;5.00;;;19.70;74.60;;;;;;5016082;28;20041;-65
2021/06/24 03:55:02;;;;;;;8.95;4.85;;;19.60;74.50;;;;;;5040696;28;20087;-66
2021/06/24 03:57:27;;;;;;;14.27;5.80;;;19.60;74.30;;;;;;5052231;28;20037;-65
2021/06/24 03:59:53;;;;;;;9.40;5.32;;;19.60;74.30;;;;;;5052575;28;20037;-66
2021/06/24 04:02:19;;;;;;;8.75;4.53;;;19.60;75.00;;;;;;5053079;28;20486;-63
2021/06/24 04:04:44;;;;;;;10.32;4.75;;;19.60;75.60;;;;;;5049097;28;20087;-65
2021/06/24 04:07:11;;;;;;;12.20;5.28;;;19.60;74.80;;;;;;5053095;28;20037;-65
2021/06/24 04:09:36;;;;;;;8.57;4.63;;;19.70;74.30;;;;;;5052184;28;20029;-65
2021/06/24 04:12:02;;;;;;;10.23;5.43;;;19.60;74.40;;;;;;5052550;28;20025;-66
2021/06/24 04:14:28;;;;;;;9.23;5.53;;;19.60;74.00;;;;;;5035034;28;20043;-65
2021/06/24 04:16:53;;;;;;;9.00;5.05;;;19.60;74.20;;;;;;5051715;28;20059;-65
2021/06/24 04:19:20;;;;;;;9.50;5.03;;;19.60;74.30;;;;;;5052853;28;20025;-64
2021/06/24 04:21:46;;;;;;;10.57;5.32;;;19.60;74.50;;;;;;5052673;28;20017;-66
2021/06/24 04:24:11;;;;;;;8.43;4.43;;;19.60;74.80;;;;;;5035014;28;20159;-65
2021/06/24 04:26:37;;;;;;;11.35;5.22;;;19.60;74.40;;;;;;5034897;28;20021;-66
2021/06/24 04:29:02;;;;;;;8.88;5.47;;;19.60;74.60;;;;;;5052464;28;20124;-65
2021/06/24 04:31:28;;;;;;;9.65;4.88;;;19.50;74.40;;;;;;5052438;28;20033;-65
2021/06/24 04:33:53;;;;;;;10.85;4.57;;;19.60;74.30;;;;;;5034342;28;20033;-65
2021/06/24 04:36:19;;;;;;;10.40;6.05;;;19.60;75.10;;;;;;5052672;28;20040;-66
2021/06/24 04:38:44;;;;;;;8.50;4.78;;;19.50;74.70;;;;;;5030832;28;20029;-66
2021/06/24 04:41:10;;;;;;;10.32;4.60;;;19.60;73.90;;;;;;5035699;28;20029;-69
2021/06/24 04:43:35;;;;;;;13.13;5.55;;;19.60;73.90;;;;;;5026100;28;20093;-68
2021/06/24 04:46:01;;;;;;;10.75;5.57;;;19.60;73.80;;;;;;5045350;28;20705;-66
2021/06/24 04:48:26;;;;;;;11.07;4.97;;;19.60;74.90;;;;;;5043089;28;20033;-64
2021/06/24 04:50:52;;;;;;;8.30;4.60;;;19.70;74.20;;;;;;5045884;28;20031;-67
2021/06/24 04:53:17;;;;;;;9.73;4.35;;;19.70;74.30;;;;;;5027990;28;20473;-65
2021/06/24 04:55:43;;;;;;;9.02;5.18;;;19.70;74.10;;;;;;5045674;28;20249;-67
2021/06/24 04:58:09;;;;;;;9.63;4.78;;;19.70;74.20;;;;;;5025578;28;20032;-65
2021/06/24 05:00:35;;;;;;;10.95;5.70;;;19.60;74.10;;;;;;5043309;28;20435;-68
2021/06/24 05:03:05;;;;;;;12.80;5.43;;;19.70;74.50;;;;;;5027346;28;20057;-63
2021/06/24 05:05:31;;;;;;;16.15;5.68;;;19.70;74.50;;;;;;5044998;28;20037;-67
2021/06/24 05:07:57;;;;;;;8.85;5.47;;;19.70;74.30;;;;;;5037752;28;20051;-65
2021/06/24 05:10:23;;;;;;;10.15;5.47;;;19.60;74.70;;;;;;5027185;28;20032;-66
2021/06/24 05:12:49;;;;;;;10.88;5.28;;;19.70;74.50;;;;;;5045816;28;20044;-66
2021/06/24 05:15:16;;;;;;;9.38;5.10;;;19.60;75.00;;;;;;5027751;28;20112;-65
2021/06/24 05:17:41;;;;;;;11.70;6.05;;;19.60;74.60;;;;;;5046065;28;20509;-67
2021/06/24 05:20:08;;;;;;;12.93;4.80;;;19.60;75.10;;;;;;5045870;28;20037;-67
2021/06/24 05:22:36;;;;;;;11.15;5.40;;;19.70;74.50;;;;;;5045874;28;20505;-64
2021/06/24 05:25:03;;;;;;;9.88;4.85;;;19.70;74.60;;;;;;5038684;28;20040;-66
2021/06/24 05:27:28;;;;;;;9.15;4.80;;;19.70;74.60;;;;;;5027067;28;20025;-66
2021/06/24 05:29:54;;;;;;;12.43;5.07;;;19.70;74.10;;;;;;5045906;28;20017;-66
2021/06/24 05:32:19;;;;;;;13.38;6.22;;;19.80;74.30;;;;;;5027843;28;20032;-67
2021/06/24 05:34:45;;;;;;;12.88;5.40;;;19.70;73.70;;;;;;5045951;28;20021;-66
2021/06/24 05:37:11;;;;;;;11.50;5.35;;;19.70;74.50;;;;;;5045213;28;20033;-64
2021/06/24 05:39:36;;;;;;;13.43;5.40;;;19.80;74.30;;;;;;5045361;28;20127;-66
2021/06/24 05:42:02;;;;;;;15.23;5.93;;;19.70;73.90;;;;;;5045465;28;20028;-67
2021/06/24 05:44:28;;;;;;;10.90;4.85;;;19.60;74.30;;;;;;5026679;28;20056;-68
2021/06/24 05:46:54;;;;;;;11.93;5.05;;;19.60;74.80;;;;;;5043942;28;20112;-68
2021/06/24 05:49:20;;;;;;;9.93;5.13;;;19.80;74.10;;;;;;5045000;28;20032;-66
2021/06/24 05:51:46;;;;;;;11.57;4.10;;;19.80;73.80;;;;;;5044650;28;20029;-67
2021/06/24 05:54:13;;;;;;;10.00;3.70;;;19.80;74.70;;;;;;5026685;28;20113;-64
2021/06/24 05:56:39;;;;;;;10.65;5.07;;;19.80;74.00;;;;;;5045127;28;20017;-66
2021/06/24 05:59:05;;;;;;;9.18;4.60;;;20.00;73.10;;;;;;5045184;28;20032;-65
2021/06/24 06:01:30;;;;;;;10.20;5.20;;;20.00;73.00;;;;;;5037930;28;20043;-68
2021/06/24 06:03:56;;;;;;;14.20;4.85;;;20.00;72.70;;;;;;5045119;28;20485;-64
2021/06/24 06:06:21;;;;;;;10.88;4.65;;;20.00;72.50;;;;;;5044954;28;20017;-66
2021/06/24 06:08:47;;;;;;;10.32;4.40;;;19.90;72.90;;;;;;5043622;28;20381;-62
2021/06/24 06:11:13;;;;;;;12.63;5.15;;;20.00;72.30;;;;;;5038268;28;20029;-66
2021/06/24 06:13:38;;;;;;;12.18;4.70;;;20.00;72.30;;;;;;5044057;28;20048;-65
2021/06/24 06:16:04;;;;;;;12.80;4.50;;;20.00;74.10;;;;;;5042861;28;20104;-65
2021/06/24 06:18:30;;;;;;;11.55;4.55;;;20.10;73.40;;;;;;5027088;28;20116;-66
2021/06/24 06:20:57;;;;;;;10.40;4.20;;;20.10;72.80;;;;;;5006276;28;20033;-71
2021/06/24 06:23:26;;;;;;;10.18;4.82;;;20.10;72.60;;;;;;5012396;28;20032;-68
2021/06/24 06:25:52;;;;;;;12.75;5.10;;;20.10;72.30;;;;;;5042136;28;20104;-67
2021/06/24 06:28:20;;;;;;;11.93;4.28;;;20.00;72.50;;;;;;5025945;28;20029;-66
2021/06/24 06:30:48;;;;;;;11.25;4.07;;;20.10;73.70;;;;;;5026813;28;20040;-65
2021/06/24 06:33:15;;;;;;;10.13;3.90;;;20.10;73.10;;;;;;5044665;28;20048;-66
2021/06/24 06:35:41;;;;;;;10.43;5.25;;;20.20;72.60;;;;;;5045057;28;20037;-65
2021/06/24 06:38:06;;;;;;;10.20;5.25;;;20.10;70.40;;;;;;5026603;28;20032;-65
2021/06/24 06:40:32;;;;;;;8.93;3.72;;;20.00;71.20;;;;;;5043331;28;20063;-67
2021/06/24 06:42:58;;;;;;;8.27;4.28;;;20.10;73.70;;;;;;5030691;28;20684;-65
2021/06/24 06:45:27;;;;;;;8.85;4.72;;;20.20;71.40;;;;;;5047433;28;20032;-63
2021/06/24 06:47:54;;;;;;;9.40;5.45;;;20.20;70.60;;;;;;5048887;28;20044;-65
2021/06/24 06:50:21;;;;;;;10.02;5.20;;;20.20;69.90;;;;;;5048889;28;20138;-66
2021/06/24 06:52:46;;;;;;;10.82;5.45;;;20.30;70.20;;;;;;5030764;28;20059;-64
2021/06/24 06:55:13;;;;;;;8.90;5.22;;;20.30;70.10;;;;;;5048616;28;20076;-67
2021/06/24 06:57:39;;;;;;;8.70;5.00;;;20.20;69.50;;;;;;5030298;28;20521;-65
2021/06/24 07:00:06;;;;;;;8.57;5.35;;;20.20;69.50;;;;;;5048505;28;20036;-65
2021/06/24 07:02:32;;;;;;;8.90;5.53;;;20.20;69.20;;;;;;5048625;28;20052;-66
2021/06/24 07:04:57;;;;;;;11.52;6.22;;;20.10;69.20;;;;;;5030745;28;20133;-69
2021/06/24 07:07:23;;;;;;;9.32;5.80;;;20.00;69.10;;;;;;5048673;28;20035;-65
2021/06/24 07:09:49;;;;;;;10.60;6.07;;;19.90;69.10;;;;;;5030318;28;20033;-67
2021/06/24 07:12:15;;;;;;;11.40;6.10;;;19.90;69.40;;;;;;5048434;28;20029;-67
2021/06/24 07:14:40;;;;;;;10.15;5.22;;;20.00;69.50;;;;;;5048176;28;20132;-65
2021/06/24 07:17:06;;;;;;;11.43;6.07;;;20.00;69.50;;;;;;5030186;28;20167;-65
2021/06/24 07:19:32;;;;;;;11.18;5.93;;;20.00;69.30;;;;;;5048247;28;20182;-66
2021/06/24 07:21:57;;;;;;;10.48;5.97;;;19.80;69.20;;;;;;5048414;28;20024;-65
2021/06/24 07:24:23;;;;;;;11.40;5.95;;;20.00;69.30;;;;;;5048185;28;20032;-66
2021/06/24 07:26:49;;;;;;;10.60;5.63;;;20.00;69.30;;;;;;5048243;28;20119;-64
2021/06/24 07:29:14;;;;;;;10.55;5.78;;;20.00;69.10;;;;;;5048094;28;20029;-65
2021/06/24 07:31:40;;;;;;;9.50;5.60;;;20.10;69.30;;;;;;5030147;28;20040;-65
2021/06/24 07:34:06;;;;;;;9.23;5.97;;;20.10;69.10;;;;;;5048039;28;20040;-66
2021/06/24 07:36:31;;;;;;;9.35;5.30;;;20.00;69.10;;;;;;5047919;28;20052;-65
2021/06/24 07:38:57;;;;;;;10.93;5.95;;;20.00;69.00;;;;;;5047652;28;20036;-66
2021/06/24 07:41:24;;;;;;;15.15;6.03;;;20.00;69.20;;;;;;5047816;28;20052;-65
2021/06/24 07:43:53;;;;;;;9.93;5.88;;;20.00;69.10;;;;;;5047747;28;20025;-65
2021/06/24 07:46:20;;;;;;;9.43;6.05;;;19.90;69.20;;;;;;5029493;28;20028;-64
2021/06/24 07:48:47;;;;;;;13.27;5.95;;;20.00;69.30;;;;;;5047501;28;20013;-65
2021/06/24 07:51:13;;;;;;;9.15;6.07;;;19.90;69.30;;;;;;5047197;28;20025;-68
2021/06/24 07:53:42;;;;;;;11.13;5.88;;;19.80;69.40;;;;;;5029843;28;20025;-65
2021/06/24 07:56:12;;;;;;;9.70;6.03;;;19.80;69.60;;;;;;5029774;28;20387;-66
2021/06/24 07:58:38;;;;;;;11.35;6.20;;;19.80;69.90;;;;;;5047270;28;20032;-66
2021/06/24 08:01:05;;;;;;;10.93;5.85;;;19.80;69.90;;;;;;5046145;28;20544;-66
2021/06/24 08:03:30;;;;;;;9.88;6.20;;;19.80;69.90;;;;;;5045966;28;20037;-65
2021/06/24 08:05:56;;;;;;;9.60;5.85;;;19.70;70.20;;;;;;5047477;28;20093;-69
2021/06/24 08:08:22;;;;;;;11.13;5.25;;;19.80;70.20;;;;;;5024377;28;20025;-66
2021/06/24 08:10:48;;;;;;;9.63;6.03;;;19.80;70.40;;;;;;5029802;28;20024;-68
2021/06/24 08:13:13;;;;;;;12.90;6.40;;;19.90;70.20;;;;;;5029526;28;20033;-66
2021/06/24 08:15:39;;;;;;;7.88;5.22;;;19.90;70.10;;;;;;5047278;28;20033;-66
2021/06/24 08:18:05;;;;;;;8.95;5.40;;;19.90;70.00;;;;;;5047183;28;20076;-65
2021/06/24 08:20:30;;;;;;;11.18;6.22;;;20.00;70.10;;;;;;5047576;28;20509;-66
2021/06/24 08:22:56;;;;;;;10.32;5.40;;;20.00;70.20;;;;;;5047411;28;20021;-66
2021/06/24 08:25:22;;;;;;;11.15;5.18;;;20.20;70.10;;;;;;5029639;28;20021;-65
2021/06/24 08:27:49;;;;;;;9.52;4.95;;;20.30;70.10;;;;;;5047174;28;20060;-69
2021/06/24 08:30:15;;;;;;;11.18;6.30;;;20.30;69.90;;;;;;5047424;28;20055;-65
2021/06/24 08:32:41;;;;;;;9.25;5.45;;;20.40;71.50;;;;;;5047481;28;20028;-66
2021/06/24 08:35:09;;;;;;;15.93;5.88;;;20.40;71.40;;;;;;5029326;28;20028;-67
2021/06/24 08:37:35;;;;;;;10.90;6.00;;;20.40;71.30;;;;;;5029357;28;20056;-67
2021/06/24 08:40:02;;;;;;;9.52;5.32;;;20.50;70.90;;;;;;5046862;28;20036;-64
2021/06/24 08:42:28;;;;;;;8.55;5.35;;;20.30;71.10;;;;;;5029273;28;20029;-66
2021/06/24 08:44:54;;;;;;;7.85;5.22;;;20.40;71.30;;;;;;5028109;28;20028;-66
2021/06/24 08:47:20;;;;;;;15.95;5.72;;;20.30;71.50;;;;;;5027047;28;20035;-66
2021/06/24 08:49:45;;;;;;;11.07;5.57;;;20.30;71.40;;;;;;5031022;28;20067;-66
2021/06/24 08:52:11;;;;;;;8.20;3.80;;;20.20;71.80;;;;;;5034788;28;20017;-65
2021/06/24 08:54:37;;;;;;;9.65;4.10;;;20.30;71.20;;;;;;5034366;28;20071;-65
2021/06/24 08:57:03;;;;;;;10.05;5.15;;;20.40;70.60;;;;;;5052393;28;20025;-65
2021/06/24 08:59:29;;;;;;;8.05;4.30;;;20.50;71.00;;;;;;5034629;28;20031;-67
2021/06/24 09:01:58;;;;;;;7.07;3.85;;;20.50;70.40;;;;;;5051804;28;20132;-65
2021/06/24 09:04:30;;;;;;;6.18;3.10;;;20.60;70.00;;;;;;5052495;28;20108;-66
2021/06/24 09:07:06;;;;;;;7.10;4.43;;;20.70;69.30;;;;;;5052169;28;20104;-65
2021/06/24 09:09:33;;;;;;;6.78;3.40;;;20.80;69.20;;;;;;5034539;28;20053;-66
2021/06/24 09:12:07;;;;;;;8.75;3.92;;;20.90;68.80;;;;;;5052420;28;20044;-66
2021/06/24 09:14:45;;;;;;;8.48;4.30;;;20.90;69.00;;;;;;5034406;28;20023;-65
2021/06/24 09:17:14;;;;;;;7.40;3.95;;;21.20;69.50;;;;;;5052017;28;20021;-66
2021/06/24 09:19:42;;;;;;;6.55;2.90;;;21.10;69.10;;;;;;5052048;28;20479;-66
2021/06/24 09:22:11;;;;;;;7.13;3.00;;;21.20;67.80;;;;;;5034364;28;20028;-66
2021/06/24 09:24:49;;;;;;;8.52;5.43;;;21.30;67.30;;;;;;5052134;28;20013;-65
2021/06/24 09:27:17;;;;;;;5.63;2.88;;;21.40;67.70;;;;;;5033865;28;20025;-66
2021/06/24 09:30:08;;;;;;;5.38;2.60;;;21.70;65.60;;;;;;5034165;28;20044;-66
2021/06/24 09:32:45;;;;;;;;;;;21.80;64.70;;;;;;5034572;28;20032;-65
2021/06/24 09:35:27;;;;;;;5.15;2.70;;;21.90;64.50;;;;;;5052020;28;20012;-66
2021/06/24 09:38:03;;;;;;;5.40;2.70;;;22.00;64.50;;;;;;5051763;28;20017;-66
2021/06/24 09:40:54;;;;;;;4.75;2.92;;;22.00;64.10;;;;;;5033789;28;20059;-66
2021/06/24 09:43:22;;;;;;;5.00;2.40;;;22.00;64.30;;;;;;5051938;28;20586;-66
2021/06/24 09:46:14;;;;;;;5.53;2.60;;;22.10;64.10;;;;;;5033842;28;20021;-66
2021/06/24 09:48:50;;;;;;;5.10;2.60;;;22.20;63.60;;;;;;5051513;28;20017;-67
2021/06/24 09:51:17;;;;;;;5.60;2.47;;;22.10;64.00;;;;;;5051708;28;20027;-66
2021/06/24 09:53:52;;;;;;;6.10;2.67;;;22.00;64.00;;;;;;5051044;28;20067;-65
2021/06/24 09:56:24;;;;;;;4.43;2.47;;;22.00;64.30;;;;;;5051654;28;20104;-65
2021/06/24 09:58:50;;;;;;;5.43;2.70;;;21.90;64.20;;;;;;5033754;28;20031;-66
2021/06/24 10:01:37;;;;;;;5.53;2.85;;;21.90;64.80;;;;;;5051524;28;20029;-66
2021/06/24 10:04:19;;;;;;;4.88;2.65;;;21.80;65.30;;;;;;5051471;28;20021;-66
2021/06/24 10:06:46;;;;;;;4.82;2.28;;;21.80;65.60;;;;;;5051503;28;20029;-66
2021/06/24 10:09:13;;;;;;;5.30;2.47;;;21.90;65.40;;;;;;5051376;28;20025;-65
2021/06/24 10:11:38;;;;;;;4.93;2.60;;;22.10;64.50;;;;;;5051423;28;20508;-65
2021/06/24 10:14:05;;;;;;;6.43;2.83;;;22.10;64.50;;;;;;5055344;28;20106;-66
2021/06/24 10:16:31;;;;;;;4.18;2.50;;;22.10;64.20;;;;;;5037721;28;20032;-66
2021/06/24 10:18:59;;;;;;;5.43;2.88;;;22.10;64.00;;;;;;5037433;28;20101;-65
2021/06/24 10:21:26;;;;;;;4.90;2.80;;;22.10;64.30;;;;;;5055424;28;20078;-63
2021/06/24 10:23:57;;;;;;;4.63;2.80;;;22.10;64.60;;;;;;5055512;28;20104;-65
2021/06/24 10:26:25;;;;;;;6.03;2.63;;;22.00;64.60;;;;;;5055551;28;20390;-65
2021/06/24 10:29:17;;;;;;;5.07;2.40;;;22.00;64.80;;;;;;5037271;28;20021;-66
2021/06/24 10:31:47;;;;;;;5.60;3.05;;;22.00;65.00;;;;;;5037448;28;20029;-65
2021/06/24 10:34:13;;;;;;;6.35;2.90;;;22.00;65.30;;;;;;5055355;28;20070;-66
2021/06/24 10:36:39;;;;;;;5.10;2.70;;;22.00;65.40;;;;;;5055304;28;20055;-66
2021/06/24 10:39:06;;;;;;;4.22;2.40;;;22.00;65.00;;;;;;5037160;28;20028;-64
2021/06/24 10:42:00;;;;;;;5.90;2.65;;;22.00;65.00;;;;;;5037149;28;20368;-65
2021/06/24 10:44:43;;;;;;;5.05;2.40;;;22.00;65.00;;;;;;5037216;28;20029;-67
2021/06/24 10:47:09;;;;;;;5.20;2.85;;;22.00;65.20;;;;;;5036877;28;20557;-65
2021/06/24 10:49:36;;;;;;;6.53;3.05;;;21.90;65.10;;;;;;5054590;28;20475;-65
2021/06/24 10:52:25;;;;;;;6.50;2.72;;;22.00;65.40;;;;;;5048164;28;20382;-65
2021/06/24 10:54:55;;;;;;;4.22;2.38;;;22.10;65.30;;;;;;5053214;28;20116;-66
2021/06/24 10:57:36;;;;;;;5.63;2.70;;;22.10;64.70;;;;;;5050375;28;20029;-66
2021/06/24 11:00:29;;;;;;;4.75;2.53;;;22.20;64.60;;;;;;5051187;28;20466;-65
2021/06/24 11:02:57;;;;;;;5.22;2.65;;;22.30;64.20;;;;;;5054373;28;20096;-66
2021/06/24 11:05:24;;;;;;;16.48;6.95;;;22.20;64.30;;;;;;5049247;28;20027;-65
2021/06/24 11:07:55;;;;;;;8.52;4.75;;;22.20;64.50;;;;;;5051819;28;20021;-65
2021/06/24 11:10:25;;;;;;;15.82;9.10;;;22.20;64.30;;;;;;5033559;28;20033;-65
2021/06/24 11:13:01;;;;;;;24.25;13.90;;;22.20;64.30;;;;;;5054168;28;20024;-65
2021/06/24 11:15:52;;;;;;;34.08;20.63;;;22.30;64.60;;;;;;5036228;28;20371;-64
2021/06/24 11:18:38;;;;;;;;;;;22.20;64.40;;;;;;5054188;28;20385;-65
2021/06/24 11:21:13;;;;;;;57.80;32.45;;;22.20;64.80;;;;;;5035974;28;20035;-65
2021/06/24 11:23:48;;;;;;;56.80;31.60;;;22.20;65.70;;;;;;5023131;28;20029;-66
2021/06/24 11:26:19;;;;;;;35.38;21.35;;;22.20;65.30;;;;;;5049151;28;20545;-66
2021/06/24 11:28:59;;;;;;;62.17;32.30;;;22.20;64.90;;;;;;5051442;28;20025;-66
2021/06/24 11:32:07;;;;;;;41.65;22.08;;;22.20;65.80;;;;;;5017539;28;20033;-66
2021/06/24 11:37:14;;;;;;;31.25;19.63;;;22.20;66.30;;;;;;5054093;28;20033;-66
2021/06/24 11:39:53;;;;;;;34.92;19.52;;;22.30;65.90;;;;;;5053771;28;20027;-65
2021/06/24 11:42:28;;;;;;;33.90;20.67;;;22.30;65.90;;;;;;5029501;28;20403;-66
2021/06/24 11:44:54;;;;;;;22.75;12.88;;;22.20;66.10;;;;;;5043462;28;20032;-65
2021/06/24 11:47:24;;;;;;;24.27;13.27;;;22.20;65.90;;;;;;5053946;28;20025;-66
2021/06/24 12:04:12;;;;;;;18.00;10.88;;;22.30;65.50;;;;;;5043511;28;20025;-66
2021/06/24 12:07:05;;;;;;;18.50;10.30;;;22.30;65.20;;;;;;5052093;28;20021;-66
2021/06/24 12:09:48;;;;;;;19.25;10.10;;;22.40;65.20;;;;;;5034244;28;20086;-67
2021/06/24 12:12:26;;;;;;;18.75;10.10;;;22.40;65.30;;;;;;5047440;28;20029;-66
2021/06/24 12:14:55;;;;;;;15.30;9.43;;;22.40;65.20;;;;;;5053023;28;20017;-65
2021/06/24 12:17:30;;;;;;;16.25;9.15;;;22.40;65.20;;;;;;5042169;28;20092;-66
2021/06/24 12:19:56;;;;;;;17.10;8.32;;;22.40;65.20;;;;;;5050164;28;20018;-66
2021/06/24 12:22:23;;;;;;;14.90;8.13;;;22.40;65.20;;;;;;5052655;28;20010;-67
2021/06/24 12:24:50;;;;;;;15.05;8.30;;;22.40;65.20;;;;;;5034359;28;20017;-65
2021/06/24 12:27:28;;;;;;;17.35;8.05;;;22.30;65.30;;;;;;5034981;28;20040;-66
2021/06/24 12:29:57;;;;;;;15.95;7.32;;;22.30;65.00;;;;;;5034690;28;20029;-65
2021/06/24 12:32:24;;;;;;;13.27;7.18;;;22.30;65.20;;;;;;5053044;28;20032;-66
2021/06/24 12:34:54;;;;;;;13.50;6.68;;;22.20;65.40;;;;;;5053133;28;20475;-66
2021/06/24 12:37:42;;;;;;;13.43;7.60;;;22.20;65.30;;;;;;5033836;28;20025;-66
2021/06/24 12:40:12;;;;;;;13.85;6.85;;;22.20;65.70;;;;;;5032883;28;20520;-66
2021/06/24 12:42:53;;;;;;;12.70;6.03;;;22.20;65.70;;;;;;5019562;28;20078;-66
2021/06/24 12:45:27;;;;;;;13.85;6.22;;;22.20;65.60;;;;;;5052943;28;20082;-67
2021/06/24 12:47:53;;;;;;;13.50;5.38;;;22.20;65.80;;;;;;5050962;28;20025;-68
2021/06/24 12:50:21;;;;;;;21.20;6.05;;;22.20;65.80;;;;;;5033748;28;20434;-66
2021/06/24 12:52:54;;;;;;;12.02;5.45;;;22.20;66.00;;;;;;5050858;28;20453;-65
2021/06/24 12:55:44;;;;;;;12.32;5.57;;;22.10;65.80;;;;;;5033526;28;20025;-64
2021/06/24 12:58:16;;;;;;;12.63;4.75;;;22.20;65.60;;;;;;5034548;28;20513;-65
2021/06/24 13:01:09;;;;;;;11.70;5.22;;;22.20;65.60;;;;;;5051757;28;20063;-65
2021/06/24 13:03:42;;;;;;;10.02;4.75;;;22.20;65.60;;;;;;5050727;28;20037;-64
2021/06/24 13:06:12;;;;;;;10.52;5.03;;;22.20;65.70;;;;;;5052460;28;20051;-65